Time;durP1;ratioP1;P1;durP2;ratioP2;P2;SDS_P1;SDS_P2;PMS_P1;PMS_P2;Temp;Humidity;BMP_temperature;BMP_pressure;BME280_temperature;BME280_humidity;BME280_pressure;Samples;Min_cycle;Max_cycle;Signal;HPM_P1;HPM_P2
2024/04/14 00:01:51;;;;;;;8.35;3.20;;;18.00;30.10;;;;;;5452512;26;20333;-72
2024/04/14 00:04:17;;;;;;;7.80;3.07;;;18.00;29.00;;;;;;5451128;26;20705;-72
2024/04/14 00:06:42;;;;;;;4.00;2.63;;;17.90;28.50;;;;;;5450236;26;20369;-72
2024/04/14 00:09:08;;;;;;;7.10;2.67;;;17.90;28.10;;;;;;5449918;26;20344;-72
2024/04/14 00:11:33;;;;;;;6.20;2.45;;;17.80;26.80;;;;;;5418722;26;20389;-72
2024/04/14 00:13:59;;;;;;;4.60;2.40;;;17.80;27.00;;;;;;5450010;26;20336;-71
2024/04/14 00:16:25;;;;;;;6.90;2.50;;;17.70;27.00;;;;;;5451603;26;20329;-73
2024/04/14 00:18:50;;;;;;;6.20;2.63;;;17.60;26.60;;;;;;5451052;26;20347;-72
2024/04/14 00:21:16;;;;;;;5.40;2.50;;;17.50;26.90;;;;;;5450717;26;20799;-72
2024/04/14 00:23:41;;;;;;;7.43;2.60;;;17.40;27.20;;;;;;5449629;26;20332;-72
2024/04/14 00:26:10;;;;;;;8.20;2.60;;;17.40;27.50;;;;;;5449912;26;20369;-73
2024/04/14 00:28:36;;;;;;;6.00;2.70;;;17.30;27.60;;;;;;5448713;26;20353;-74
2024/04/14 00:31:01;;;;;;;4.38;2.30;;;17.20;27.80;;;;;;5449549;26;20712;-73
2024/04/14 00:33:30;;;;;;;4.63;2.70;;;17.20;28.00;;;;;;5444915;26;20337;-74
2024/04/14 00:35:55;;;;;;;5.78;2.28;;;17.10;27.90;;;;;;5449447;26;20329;-74
2024/04/14 00:38:21;;;;;;;5.25;2.70;;;17.10;27.20;;;;;;5446406;26;20474;-73
2024/04/14 00:40:47;;;;;;;3.22;2.17;;;17.30;26.80;;;;;;5438719;26;20376;-72
2024/04/14 00:43:15;;;;;;;6.67;2.10;;;17.20;26.80;;;;;;5433325;26;20354;-72
2024/04/14 00:45:42;;;;;;;7.35;2.35;;;17.10;26.90;;;;;;5413432;26;20702;-71
2024/04/14 00:48:08;;;;;;;3.50;2.00;;;17.00;25.60;;;;;;5443126;26;20629;-73
2024/04/14 00:50:34;;;;;;;4.83;1.90;;;17.00;24.80;;;;;;5413952;26;20327;-74
2024/04/14 00:52:59;;;;;;;6.93;2.45;;;16.90;24.60;;;;;;5413932;26;20328;-70
2024/04/14 00:55:25;;;;;;;5.05;1.85;;;16.80;24.70;;;;;;5413245;26;21009;-72
2024/04/14 00:57:52;;;;;;;6.70;2.10;;;16.80;23.30;;;;;;5413558;26;20723;-72
2024/04/14 01:00:17;;;;;;;5.43;2.10;;;16.80;22.30;;;;;;5414130;26;20331;-71
2024/04/14 01:02:43;;;;;;;5.20;2.50;;;16.70;21.50;;;;;;5412762;26;20479;-72
2024/04/14 01:05:09;;;;;;;3.40;2.00;;;16.70;21.80;;;;;;5412410;26;20328;-72
2024/04/14 01:07:36;;;;;;;9.50;1.83;;;16.50;21.70;;;;;;5412786;26;20331;-72
2024/04/14 01:10:02;;;;;;;2.87;1.73;;;16.40;21.70;;;;;;5413113;26;20853;-72
2024/04/14 01:12:27;;;;;;;5.50;2.00;;;16.30;21.60;;;;;;5412428;26;20877;-73
2024/04/14 01:14:53;;;;;;;4.05;1.92;;;16.30;21.20;;;;;;5412684;26;20371;-72
2024/04/14 01:17:18;;;;;;;8.40;2.07;;;16.10;21.20;;;;;;5412769;26;20335;-73
2024/04/14 01:19:44;;;;;;;5.93;2.27;;;16.00;20.90;;;;;;5412921;26;20332;-73
2024/04/14 01:22:11;;;;;;;3.85;1.80;;;15.90;21.00;;;;;;5412759;26;20327;-72
2024/04/14 01:24:36;;;;;;;7.97;2.30;;;15.90;20.90;;;;;;5412144;26;20332;-72
2024/04/14 01:27:02;;;;;;;4.90;1.90;;;15.80;20.80;;;;;;5412746;26;20343;-70
2024/04/14 01:29:27;;;;;;;3.77;1.70;;;15.80;20.70;;;;;;5412755;26;20399;-72
2024/04/14 01:31:53;;;;;;;7.13;2.00;;;15.90;20.60;;;;;;5412758;26;20383;-73
2024/04/14 01:34:20;;;;;;;5.77;2.10;;;15.80;20.70;;;;;;5412918;26;20323;-72
2024/04/14 01:36:45;;;;;;;8.00;2.07;;;15.70;21.30;;;;;;5415851;26;20528;-72
2024/04/14 01:39:11;;;;;;;5.33;2.37;;;15.60;21.50;;;;;;5415927;26;20347;-72
2024/04/14 01:41:36;;;;;;;6.25;1.90;;;15.50;21.90;;;;;;5415924;26;20346;-72
2024/04/14 01:44:02;;;;;;;5.70;2.22;;;15.70;21.60;;;;;;5415784;26;20362;-72
2024/04/14 01:46:27;;;;;;;4.90;1.90;;;15.80;21.20;;;;;;5415803;26;20433;-73
2024/04/14 01:48:53;;;;;;;5.80;2.30;;;15.80;21.60;;;;;;5415790;26;20352;-72
2024/04/14 01:51:18;;;;;;;8.05;2.28;;;15.60;22.00;;;;;;5415845;26;20320;-72
2024/04/14 01:53:44;;;;;;;7.40;2.10;;;15.60;22.30;;;;;;5415337;26;20359;-72
2024/04/14 01:56:09;;;;;;;6.10;2.33;;;15.40;22.50;;;;;;5415417;26;20624;-72
2024/04/14 01:58:35;;;;;;;6.83;2.43;;;15.30;22.90;;;;;;5415547;26;20767;-73
2024/04/14 02:01:00;;;;;;;7.60;2.00;;;15.30;23.20;;;;;;5415659;26;20379;-71
2024/04/14 02:03:26;;;;;;;7.33;2.10;;;15.30;23.50;;;;;;5415975;26;20335;-71
2024/04/14 02:05:59;;;;;;;5.20;2.27;;;15.20;24.00;;;;;;5416215;26;20328;-72
2024/04/14 02:08:24;;;;;;;4.53;2.10;;;15.10;24.40;;;;;;5384643;26;20343;-72
2024/04/14 02:10:50;;;;;;;5.13;2.33;;;15.10;24.90;;;;;;5415733;26;20877;-73
2024/04/14 02:13:16;;;;;;;6.13;2.40;;;15.10;24.70;;;;;;5415337;26;20375;-72
2024/04/14 02:15:41;;;;;;;4.60;2.25;;;15.20;24.80;;;;;;5415364;26;20360;-71
2024/04/14 02:18:07;;;;;;;5.05;1.98;;;15.40;24.30;;;;;;5415356;26;20367;-73
2024/04/14 02:20:33;;;;;;;7.43;2.15;;;15.30;24.70;;;;;;5415320;26;20702;-71
2024/04/14 02:22:58;;;;;;;7.40;2.43;;;15.40;24.40;;;;;;5415668;26;20759;-72
2024/04/14 02:25:24;;;;;;;3.03;2.30;;;15.30;24.50;;;;;;5415299;26;20324;-72
2024/04/14 02:27:49;;;;;;;8.75;2.50;;;15.40;24.50;;;;;;5415198;26;20335;-72
2024/04/14 02:30:15;;;;;;;8.55;2.10;;;15.50;24.20;;;;;;5415440;26;20413;-71
2024/04/14 02:32:40;;;;;;;8.00;2.20;;;15.50;24.30;;;;;;5414983;26;20331;-72
2024/04/14 02:35:06;;;;;;;8.60;2.30;;;15.40;24.50;;;;;;5415043;26;20319;-72
2024/04/14 02:37:32;;;;;;;8.05;2.40;;;15.40;24.50;;;;;;5414782;26;20327;-73
2024/04/14 02:39:58;;;;;;;7.88;2.47;;;15.50;25.00;;;;;;5415121;26;20335;-73
2024/04/14 02:42:23;;;;;;;8.60;2.77;;;15.40;25.20;;;;;;5414930;26;20665;-73
2024/04/14 02:44:49;;;;;;;6.30;2.40;;;15.30;25.30;;;;;;5414588;26;20332;-72
2024/04/14 02:47:14;;;;;;;7.67;2.40;;;15.20;25.70;;;;;;5414784;26;20323;-72
2024/04/14 02:49:40;;;;;;;7.80;2.57;;;15.10;25.80;;;;;;5414703;26;20719;-73
2024/04/14 02:52:08;;;;;;;7.23;2.50;;;15.10;26.00;;;;;;5414912;26;20718;-73
2024/04/14 02:54:34;;;;;;;10.45;3.00;;;15.00;26.20;;;;;;5414551;26;20439;-72
2024/04/14 02:57:00;;;;;;;5.43;2.50;;;15.00;26.60;;;;;;5415091;26;20343;-72
2024/04/14 02:59:25;;;;;;;4.90;2.10;;;14.90;27.00;;;;;;5414909;26;20726;-73
2024/04/14 03:01:51;;;;;;;9.23;2.73;;;14.80;27.40;;;;;;5414623;26;20343;-73
2024/04/14 03:04:16;;;;;;;7.20;2.57;;;14.70;27.80;;;;;;5414593;26;20353;-74
2024/04/14 03:06:42;;;;;;;12.20;2.88;;;14.60;28.00;;;;;;5414584;26;20406;-73
2024/04/14 03:09:07;;;;;;;7.33;2.63;;;14.60;28.20;;;;;;5414791;26;20331;-71
2024/04/14 03:11:33;;;;;;;7.90;2.30;;;14.50;28.50;;;;;;5383170;26;20336;-73
2024/04/14 03:13:58;;;;;;;6.70;2.50;;;14.50;28.70;;;;;;5414412;26;20790;-72
2024/04/14 03:16:24;;;;;;;6.38;2.60;;;14.40;29.00;;;;;;5414768;26;20344;-73
2024/04/14 03:18:49;;;;;;;8.95;2.88;;;14.40;29.00;;;;;;5414802;26;20328;-71
2024/04/14 03:21:15;;;;;;;5.30;2.53;;;14.40;29.10;;;;;;5414651;26;20328;-70
2024/04/14 03:23:42;;;;;;;5.20;2.50;;;15.00;29.40;;;;;;5414218;26;20323;-73
2024/04/14 03:26:07;;;;;;;6.20;2.63;;;14.50;29.40;;;;;;5414547;26;20364;-72
2024/04/14 03:28:34;;;;;;;8.93;2.80;;;14.50;29.40;;;;;;5414753;26;20335;-73
2024/04/14 03:31:00;;;;;;;11.80;2.92;;;14.60;29.40;;;;;;5424545;26;20837;-72
2024/04/14 03:33:29;;;;;;;9.43;2.95;;;14.60;29.40;;;;;;5424473;26;20320;-70
2024/04/14 03:36:02;;;;;;;9.80;2.83;;;14.70;29.20;;;;;;5416414;26;20363;-73
2024/04/14 03:38:28;;;;;;;6.20;2.60;;;14.80;29.10;;;;;;5414897;26;20335;-73
2024/04/14 03:40:53;;;;;;;9.75;2.60;;;14.70;29.10;;;;;;5415016;26;20678;-72
2024/04/14 03:43:19;;;;;;;7.27;2.80;;;14.80;29.10;;;;;;5414250;26;20371;-72
2024/04/14 03:45:45;;;;;;;12.57;3.10;;;14.70;29.20;;;;;;5414146;26;20335;-73
2024/04/14 03:48:10;;;;;;;10.40;2.60;;;14.70;29.60;;;;;;5414509;26;20335;-71
2024/04/14 03:50:36;;;;;;;5.83;2.50;;;14.70;29.90;;;;;;5414415;26;20442;-71
2024/04/14 03:53:01;;;;;;;8.52;2.80;;;14.80;29.70;;;;;;5382650;26;20331;-73
2024/04/14 03:55:27;;;;;;;6.70;2.60;;;14.80;29.70;;;;;;5414161;26;20829;-72
2024/04/14 03:57:52;;;;;;;10.60;2.90;;;14.60;29.90;;;;;;5413094;26;20347;-72
2024/04/14 04:00:18;;;;;;;9.23;3.10;;;14.50;30.40;;;;;;5414532;26;20368;-72
2024/04/14 04:02:43;;;;;;;9.80;2.90;;;14.40;30.90;;;;;;5414194;26;20327;-72
2024/04/14 04:05:09;;;;;;;8.73;2.93;;;14.20;31.60;;;;;;5414023;26;20328;-73
2024/04/14 04:07:35;;;;;;;8.07;2.63;;;14.10;32.30;;;;;;5413972;26;20662;-71
2024/04/14 04:10:00;;;;;;;6.33;3.00;;;14.10;32.60;;;;;;5414288;26;20365;-71
2024/04/14 04:12:26;;;;;;;11.50;3.23;;;14.10;32.70;;;;;;5413832;26;20327;-74
2024/04/14 04:14:51;;;;;;;11.13;2.90;;;14.10;33.00;;;;;;5417113;26;20343;-72
2024/04/14 04:17:18;;;;;;;9.68;3.90;;;14.10;33.10;;;;;;5416277;26;20391;-73
2024/04/14 04:19:43;;;;;;;7.97;3.20;;;14.10;33.40;;;;;;5417020;26;20437;-74
2024/04/14 04:22:09;;;;;;;8.67;3.23;;;14.10;33.40;;;;;;5417938;26;20343;-73
2024/04/14 04:24:34;;;;;;;8.02;3.00;;;14.10;34.20;;;;;;5418582;26;20326;-72
2024/04/14 04:27:00;;;;;;;6.78;3.17;;;14.20;33.80;;;;;;5416471;26;20362;-72
2024/04/14 04:29:27;;;;;;;11.05;3.67;;;14.10;33.80;;;;;;5416816;26;20381;-72
2024/04/14 04:31:54;;;;;;;14.02;3.65;;;14.10;34.10;;;;;;5416397;26;20418;-73
2024/04/14 04:34:23;;;;;;;13.75;3.60;;;14.20;33.90;;;;;;5414681;26;20327;-73
2024/04/14 04:36:50;;;;;;;8.52;3.35;;;14.20;33.90;;;;;;5383911;26;20881;-72
2024/04/14 04:39:17;;;;;;;9.45;3.13;;;14.20;34.00;;;;;;5414463;26;20383;-73
2024/04/14 04:41:43;;;;;;;16.73;4.17;;;14.20;34.40;;;;;;5415756;26;20812;-73
2024/04/14 04:44:10;;;;;;;11.20;3.90;;;14.20;34.50;;;;;;5415094;26;20421;-73
2024/04/14 04:46:36;;;;;;;10.35;3.70;;;14.20;34.70;;;;;;5415692;26;20822;-73
2024/04/14 04:49:02;;;;;;;11.77;4.10;;;14.20;34.80;;;;;;5466213;21;20350;-70
2024/04/14 04:51:28;;;;;;;12.70;3.63;;;14.20;35.00;;;;;;5486242;26;20412;-72
2024/04/14 04:53:53;;;;;;;10.52;3.40;;;14.20;35.30;;;;;;5485349;26;20617;-69
2024/04/14 04:56:19;;;;;;;14.00;3.67;;;14.00;35.80;;;;;;5485788;26;20823;-72
2024/04/14 04:58:44;;;;;;;10.93;4.47;;;14.00;36.10;;;;;;5485453;26;20326;-70
2024/04/14 05:01:11;;;;;;;13.90;4.07;;;14.00;36.40;;;;;;5485513;26;20314;-71
2024/04/14 05:03:36;;;;;;;16.08;4.50;;;14.00;36.60;;;;;;5485372;26;20322;-71
2024/04/14 05:06:04;;;;;;;10.48;4.00;;;13.90;37.10;;;;;;5485361;26;20322;-70
2024/04/14 05:08:31;;;;;;;14.13;4.37;;;13.90;37.60;;;;;;5484528;26;20529;-71
2024/04/14 05:10:57;;;;;;;14.88;4.22;;;13.80;37.90;;;;;;5484668;26;20326;-70
2024/04/14 05:13:24;;;;;;;15.02;4.80;;;13.90;37.80;;;;;;5485017;26;20387;-71
2024/04/14 05:15:50;;;;;;;16.75;4.10;;;13.90;37.80;;;;;;5453202;26;20373;-70
2024/04/14 05:18:16;;;;;;;10.70;3.78;;;13.90;38.00;;;;;;5485747;26;20330;-70
2024/04/14 05:20:43;;;;;;;15.15;4.32;;;13.90;38.10;;;;;;5485085;26;20348;-69
2024/04/14 05:23:09;;;;;;;12.77;4.40;;;13.90;38.20;;;;;;5485302;26;20433;-71
2024/04/14 05:25:35;;;;;;;9.85;3.78;;;13.90;38.20;;;;;;5485380;26;20668;-71
2024/04/14 05:28:01;;;;;;;17.25;4.80;;;13.90;38.20;;;;;;5485369;26;20332;-70
2024/04/14 05:30:27;;;;;;;12.70;4.50;;;14.00;38.30;;;;;;5485191;26;20418;-70
2024/04/14 05:32:53;;;;;;;10.57;3.80;;;14.00;38.30;;;;;;5485013;26;20362;-70
2024/04/14 05:35:18;;;;;;;13.37;4.70;;;13.90;38.60;;;;;;5484980;26;20665;-70
2024/04/14 05:37:44;;;;;;;14.10;4.07;;;14.00;38.70;;;;;;5485326;26;20322;-70
2024/04/14 05:40:10;;;;;;;15.40;5.07;;;14.00;38.80;;;;;;5484609;26;20494;-70
2024/04/14 05:42:35;;;;;;;15.77;4.80;;;14.00;38.60;;;;;;5485265;26;20319;-69
2024/04/14 05:45:01;;;;;;;8.40;4.30;;;14.10;38.60;;;;;;5484397;26;20322;-71
2024/04/14 05:47:27;;;;;;;18.13;5.00;;;14.10;38.70;;;;;;5484929;26;20322;-69
2024/04/14 05:49:53;;;;;;;13.77;5.23;;;14.10;38.70;;;;;;5484712;26;20496;-71
2024/04/14 05:52:21;;;;;;;18.77;5.60;;;14.30;38.10;;;;;;5484630;26;20351;-70
2024/04/14 05:54:46;;;;;;;16.48;5.10;;;14.30;38.00;;;;;;5484143;26;20330;-70
2024/04/14 05:57:12;;;;;;;16.43;6.07;;;14.30;38.30;;;;;;5484897;26;20723;-70
2024/04/14 05:59:37;;;;;;;21.33;7.30;;;14.30;38.20;;;;;;5484626;26;20371;-71
2024/04/14 06:02:03;;;;;;;19.07;4.97;;;14.40;38.10;;;;;;5484873;26;20322;-69
2024/04/14 06:04:29;;;;;;;9.05;4.70;;;14.40;38.10;;;;;;5484098;26;20667;-70
2024/04/14 06:06:55;;;;;;;19.03;5.60;;;14.60;37.50;;;;;;5484940;26;20801;-70
2024/04/14 06:09:23;;;;;;;18.90;6.40;;;14.60;37.40;;;;;;5484780;26;20324;-72
2024/04/14 06:11:51;;;;;;;14.18;5.60;;;14.60;37.60;;;;;;5484506;26;20334;-69
2024/04/14 06:14:17;;;;;;;18.05;5.65;;;14.60;38.00;;;;;;5482532;26;21005;-71
2024/04/14 06:16:42;;;;;;;18.05;5.90;;;14.70;37.50;;;;;;5484703;26;20323;-70
2024/04/14 06:19:08;;;;;;;17.47;6.13;;;14.80;37.40;;;;;;5485286;26;20359;-71
2024/04/14 06:21:33;;;;;;;22.57;5.80;;;14.80;37.20;;;;;;5487035;26;20334;-70
2024/04/14 06:23:59;;;;;;;13.27;5.55;;;14.90;37.30;;;;;;5488638;26;20333;-69
2024/04/14 06:26:24;;;;;;;17.48;5.68;;;14.90;36.80;;;;;;5488967;26;20338;-70
2024/04/14 06:28:50;;;;;;;21.27;5.60;;;14.90;36.50;;;;;;5489541;26;20338;-72
2024/04/14 06:31:15;;;;;;;17.30;5.87;;;14.70;37.40;;;;;;5487852;26;20337;-70
2024/04/14 06:33:41;;;;;;;14.87;5.57;;;14.70;38.00;;;;;;5487400;26;20370;-70
2024/04/14 06:36:07;;;;;;;15.70;5.28;;;14.90;37.60;;;;;;5489150;26;20414;-71
2024/04/14 06:38:33;;;;;;;14.93;5.55;;;15.00;37.40;;;;;;5487780;26;20349;-70
2024/04/14 06:40:59;;;;;;;16.40;6.07;;;15.20;35.70;;;;;;5488673;26;20900;-70
2024/04/14 06:43:24;;;;;;;14.27;5.03;;;15.20;35.90;;;;;;5488106;26;20326;-71
2024/04/14 06:45:54;;;;;;;16.80;5.40;;;15.00;36.00;;;;;;5487757;26;20334;-70
2024/04/14 06:48:20;;;;;;;16.48;5.85;;;14.90;37.00;;;;;;5456772;26;20668;-71
2024/04/14 06:50:45;;;;;;;24.27;5.65;;;14.60;37.80;;;;;;5488820;26;20781;-71
2024/04/14 06:53:12;;;;;;;14.23;6.00;;;14.50;38.50;;;;;;5488386;26;20322;-72
2024/04/14 06:55:37;;;;;;;19.10;5.80;;;14.40;38.70;;;;;;5488089;26;20361;-71
2024/04/14 06:58:03;;;;;;;15.10;5.80;;;14.60;38.50;;;;;;5487956;26;20330;-71
2024/04/14 07:00:28;;;;;;;15.43;4.63;;;14.70;38.40;;;;;;5487883;26;20338;-71
2024/04/14 07:02:54;;;;;;;22.60;6.23;;;15.00;37.50;;;;;;5487358;26;20326;-71
2024/04/14 07:05:19;;;;;;;20.35;6.38;;;15.20;36.30;;;;;;5486746;26;20326;-70
2024/04/14 07:07:46;;;;;;;17.33;6.70;;;15.20;36.40;;;;;;5486950;26;20322;-70
2024/04/14 07:10:12;;;;;;;17.80;5.78;;;15.20;36.70;;;;;;5454941;26;20366;-71
2024/04/14 07:12:37;;;;;;;20.20;5.90;;;15.30;36.00;;;;;;5486838;26;20326;-70
2024/04/14 07:15:03;;;;;;;14.05;6.30;;;15.40;36.00;;;;;;5486588;26;20738;-71
2024/04/14 07:17:29;;;;;;;18.20;5.53;;;15.30;35.30;;;;;;5486988;26;20413;-71
2024/04/14 07:19:54;;;;;;;16.15;5.40;;;15.40;35.30;;;;;;5487064;26;20322;-70
2024/04/14 07:22:20;;;;;;;18.15;6.30;;;15.10;37.00;;;;;;5486865;26;20361;-70
2024/04/14 07:24:45;;;;;;;22.13;5.80;;;15.10;37.00;;;;;;5486314;26;20338;-70
2024/04/14 07:27:11;;;;;;;21.27;6.07;;;15.20;36.70;;;;;;5454741;26;20318;-71
2024/04/14 07:29:36;;;;;;;14.70;5.40;;;15.20;36.50;;;;;;5454752;26;20410;-71
2024/04/14 07:32:03;;;;;;;16.35;4.68;;;15.10;36.30;;;;;;5485914;26;20374;-71
2024/04/14 07:34:28;;;;;;;17.42;5.28;;;15.10;35.80;;;;;;5487174;26;20683;-71
2024/04/14 07:36:54;;;;;;;16.38;4.97;;;15.00;36.40;;;;;;5487431;26;20796;-71
2024/04/14 07:39:19;;;;;;;14.23;5.20;;;14.90;36.60;;;;;;5487217;26;20382;-71
2024/04/14 07:41:45;;;;;;;14.97;5.00;;;14.80;36.60;;;;;;5486871;26;20427;-71
2024/04/14 07:44:10;;;;;;;15.97;5.50;;;15.00;36.50;;;;;;5455093;26;20722;-71
2024/04/14 07:46:36;;;;;;;18.60;5.30;;;15.20;36.00;;;;;;5487775;26;20650;-71
2024/04/14 07:49:02;;;;;;;15.93;5.03;;;15.50;35.30;;;;;;5487057;26;20408;-71
2024/04/14 07:51:28;;;;;;;16.55;4.93;;;15.60;34.20;;;;;;5487616;26;20330;-71
2024/04/14 07:53:53;;;;;;;16.58;5.97;;;15.20;34.90;;;;;;5487835;26;20318;-71
2024/04/14 07:56:19;;;;;;;14.30;4.75;;;15.10;35.70;;;;;;5488046;26;20856;-70
2024/04/14 07:58:44;;;;;;;16.77;5.40;;;15.20;35.80;;;;;;5487101;26;20341;-70
2024/04/14 08:01:10;;;;;;;15.97;4.83;;;15.30;35.00;;;;;;5487558;26;20326;-70
2024/04/14 08:03:35;;;;;;;24.73;5.77;;;15.40;34.40;;;;;;5486685;26;20322;-70
2024/04/14 08:06:01;;;;;;;13.93;5.47;;;15.40;34.80;;;;;;5486559;26;20330;-70
2024/04/14 08:08:27;;;;;;;16.02;5.40;;;15.60;34.80;;;;;;5486958;26;20670;-71
2024/04/14 08:10:52;;;;;;;17.73;5.43;;;15.90;34.30;;;;;;5487040;26;20326;-70
2024/04/14 08:13:18;;;;;;;18.10;5.10;;;16.20;32.90;;;;;;5484696;26;20416;-71
2024/04/14 08:15:43;;;;;;;17.80;5.43;;;16.10;33.00;;;;;;5453790;26;20366;-70
2024/04/14 08:18:09;;;;;;;17.15;5.28;;;16.10;33.30;;;;;;5485080;26;20326;-71
2024/04/14 08:20:35;;;;;;;17.00;5.00;;;16.30;31.80;;;;;;5485409;26;20327;-69
2024/04/14 08:23:01;;;;;;;14.45;4.60;;;16.40;29.20;;;;;;5485139;26;20797;-69
2024/04/14 08:25:26;;;;;;;14.07;4.80;;;16.60;28.90;;;;;;5485119;26;20362;-71
2024/04/14 08:27:52;;;;;;;16.87;4.47;;;16.60;27.90;;;;;;5486126;26;20746;-69
2024/04/14 08:30:17;;;;;;;17.70;4.50;;;16.30;29.10;;;;;;5478524;26;20667;-69
2024/04/14 08:32:44;;;;;;;14.15;4.75;;;16.30;29.10;;;;;;5459650;26;20794;-71
2024/04/14 08:35:09;;;;;;;15.65;5.30;;;16.00;30.10;;;;;;5485910;26;20322;-70
2024/04/14 08:37:35;;;;;;;20.90;5.00;;;16.20;30.30;;;;;;5483466;26;20843;-69
2024/04/14 08:40:01;;;;;;;14.80;4.70;;;16.60;29.80;;;;;;5485797;26;20368;-70
2024/04/14 08:42:28;;;;;;;11.23;4.20;;;16.80;28.90;;;;;;5485493;26;20330;-70
2024/04/14 08:44:55;;;;;;;13.15;4.50;;;16.90;27.80;;;;;;5485455;26;20666;-70
2024/04/14 08:47:22;;;;;;;16.17;4.40;;;16.70;28.10;;;;;;5485833;26;20338;-69
2024/04/14 08:49:49;;;;;;;14.38;5.10;;;16.30;29.30;;;;;;5485188;26;20370;-69
2024/04/14 08:52:15;;;;;;;11.55;5.00;;;16.10;30.60;;;;;;5484675;26;20326;-70
2024/04/14 08:54:41;;;;;;;17.00;5.10;;;16.00;29.80;;;;;;5484977;26;20374;-68
2024/04/14 08:57:08;;;;;;;11.30;4.00;;;16.00;30.10;;;;;;5485504;26;20326;-72
2024/04/14 08:59:40;;;;;;;21.08;4.22;;;16.20;29.30;;;;;;5485063;26;20362;-69
2024/04/14 09:02:09;;;;;;;15.73;4.17;;;16.50;27.60;;;;;;5482222;26;20340;-70
2024/04/14 09:04:34;;;;;;;10.98;3.88;;;16.60;26.90;;;;;;5468918;26;20421;-71
2024/04/14 09:07:00;;;;;;;10.55;3.72;;;16.30;27.20;;;;;;5448816;26;20336;-70
2024/04/14 09:09:26;;;;;;;12.00;3.78;;;16.30;27.80;;;;;;5451029;26;20344;-70
2024/04/14 09:11:52;;;;;;;12.60;2.80;;;16.60;26.00;;;;;;5485335;26;20359;-70
2024/04/14 09:14:19;;;;;;;11.40;2.90;;;16.80;22.80;;;;;;5480746;26;20418;-72
2024/04/14 09:16:45;;;;;;;10.77;2.63;;;16.50;24.00;;;;;;5461227;26;20725;-69
2024/04/14 09:19:10;;;;;;;12.00;3.00;;;16.30;24.80;;;;;;5480958;26;20403;-70
2024/04/14 09:21:36;;;;;;;12.73;2.92;;;16.40;24.90;;;;;;5453803;26;20332;-71
2024/04/14 09:24:02;;;;;;;9.05;2.53;;;16.60;25.30;;;;;;5464358;26;20322;-71
2024/04/14 09:26:27;;;;;;;14.40;2.90;;;16.90;23.30;;;;;;5481686;26;20701;-70
2024/04/14 09:29:07;;;;;;;11.63;2.60;;;17.00;21.80;;;;;;5481344;26;20887;-70
2024/04/14 09:31:33;;;;;;;10.95;2.70;;;16.70;22.30;;;;;;5482342;26;20314;-69
2024/04/14 09:33:59;;;;;;;11.40;2.65;;;16.60;23.70;;;;;;5481631;26;20310;-70
2024/04/14 09:36:26;;;;;;;11.18;3.28;;;16.70;24.10;;;;;;5481720;26;20310;-70
2024/04/14 09:38:53;;;;;;;12.82;3.33;;;17.00;22.90;;;;;;5481291;26;20732;-71
2024/04/14 09:41:22;;;;;;;9.65;3.17;;;17.00;23.90;;;;;;5481287;26;20854;-69
2024/04/14 09:43:50;;;;;;;7.10;2.40;;;17.10;23.50;;;;;;5480041;26;20326;-69
2024/04/14 09:46:17;;;;;;;9.15;2.35;;;16.70;21.60;;;;;;5481651;26;20315;-68
2024/04/14 09:48:44;;;;;;;3.70;1.63;;;16.50;21.90;;;;;;5479936;26;20322;-69
2024/04/14 09:51:09;;;;;;;5.40;1.92;;;16.60;19.40;;;;;;5481526;26;20319;-70
2024/04/14 09:53:36;;;;;;;7.15;2.30;;;16.40;20.90;;;;;;5480070;26;20432;-69
2024/04/14 09:56:02;;;;;;;9.32;2.65;;;16.20;22.20;;;;;;5482799;26;20322;-69
2024/04/14 09:58:28;;;;;;;9.55;2.65;;;16.30;23.20;;;;;;5483744;26;20322;-73
2024/04/14 10:00:56;;;;;;;12.80;2.70;;;16.30;20.70;;;;;;5487157;26;20322;-71
2024/04/14 10:03:24;;;;;;;12.70;2.63;;;16.40;21.90;;;;;;5485292;26;20420;-71
2024/04/14 10:05:50;;;;;;;12.98;2.60;;;16.50;22.50;;;;;;5484585;26;20724;-70
2024/04/14 10:08:17;;;;;;;8.07;2.30;;;16.40;21.30;;;;;;5484602;26;20334;-71
2024/04/14 10:10:43;;;;;;;8.68;2.30;;;16.00;20.90;;;;;;5483746;26;20330;-71
2024/04/14 10:13:09;;;;;;;11.80;2.60;;;16.10;21.50;;;;;;5484365;26;20366;-70
2024/04/14 10:15:38;;;;;;;11.95;2.30;;;16.10;21.40;;;;;;5483614;26;20686;-71
2024/04/14 10:18:17;;;;;;;11.63;2.10;;;16.30;22.10;;;;;;5484262;26;20414;-69
2024/04/14 10:20:46;;;;;;;10.90;2.25;;;16.10;21.30;;;;;;5484205;26;20922;-69
2024/04/14 10:23:18;;;;;;;8.80;2.80;;;16.00;21.60;;;;;;5480587;26;20659;-70
2024/04/14 10:25:53;;;;;;;9.15;2.30;;;16.30;21.10;;;;;;5484313;26;20420;-70
2024/04/14 10:28:20;;;;;;;8.07;2.30;;;16.80;20.30;;;;;;5451900;26;20377;-69
2024/04/14 10:30:45;;;;;;;8.68;1.98;;;17.20;19.80;;;;;;5484143;26;20326;-69
2024/04/14 10:33:24;;;;;;;7.43;2.22;;;17.50;19.10;;;;;;5451087;26;20364;-70
2024/04/14 10:36:01;;;;;;;9.25;2.00;;;17.80;18.10;;;;;;5484275;26;20674;-69
2024/04/14 10:38:29;;;;;;;11.40;2.20;;;17.80;18.40;;;;;;5483645;26;20774;-68
2024/04/14 10:40:55;;;;;;;7.35;2.30;;;18.00;17.80;;;;;;5484004;26;20323;-69
2024/04/14 10:43:24;;;;;;;7.50;2.40;;;18.30;17.10;;;;;;5483170;26;20323;-68
2024/04/14 10:45:49;;;;;;;8.07;2.30;;;18.20;17.30;;;;;;5484277;26;20911;-69
2024/04/14 10:48:15;;;;;;;5.70;2.30;;;18.30;17.30;;;;;;5508903;21;20714;-71
2024/04/14 10:50:45;;;;;;;9.82;2.35;;;17.60;18.00;;;;;;5486297;26;20364;-70
2024/04/14 10:53:10;;;;;;;9.43;2.72;;;17.30;19.60;;;;;;5487385;26;20684;-70
2024/04/14 10:55:36;;;;;;;9.75;2.40;;;17.50;18.70;;;;;;5486614;26;20380;-70
2024/04/14 10:58:01;;;;;;;6.80;2.53;;;17.60;18.60;;;;;;5486829;26;20360;-70
2024/04/14 11:00:27;;;;;;;9.20;2.20;;;17.50;17.90;;;;;;5486389;26;20361;-70
2024/04/14 11:02:53;;;;;;;7.37;2.37;;;17.30;19.30;;;;;;5484616;26;20419;-70
2024/04/14 11:05:23;;;;;;;9.17;2.60;;;17.00;19.30;;;;;;5484465;26;20879;-70
2024/04/14 11:07:50;;;;;;;11.50;2.22;;;16.80;19.80;;;;;;5482972;26;20318;-70
2024/04/14 11:10:17;;;;;;;7.45;1.98;;;16.70;20.00;;;;;;5484863;26;20839;-71
2024/04/14 11:12:44;;;;;;;9.27;2.20;;;17.10;19.50;;;;;;5484424;26;20411;-71
2024/04/14 11:15:10;;;;;;;9.15;2.03;;;17.50;19.30;;;;;;5483093;26;20408;-72
2024/04/14 11:17:35;;;;;;;7.22;2.40;;;17.60;18.10;;;;;;5484757;26;20370;-71
2024/04/14 11:20:01;;;;;;;8.32;1.95;;;17.30;18.80;;;;;;5484950;26;20425;-72
2024/04/14 11:22:27;;;;;;;8.02;2.20;;;16.90;18.80;;;;;;5486146;26;20323;-71
2024/04/14 11:24:52;;;;;;;5.20;1.88;;;16.90;18.80;;;;;;5481755;26;20369;-72
2024/04/14 11:27:19;;;;;;;6.97;2.13;;;16.70;19.20;;;;;;5485053;26;20365;-71
2024/04/14 11:29:44;;;;;;;7.18;2.13;;;17.00;19.70;;;;;;5448310;26;20353;-72
2024/04/14 11:32:33;;;;;;;9.15;2.30;;;17.10;19.20;;;;;;5482417;26;20393;-74
2024/04/14 11:35:01;;;;;;;6.40;1.63;;;17.20;18.80;;;;;;5490172;26;20327;-76
2024/04/14 11:37:31;;;;;;;7.47;2.10;;;17.20;18.40;;;;;;5456846;26;20422;-73
2024/04/14 11:39:58;;;;;;;5.80;1.85;;;17.30;17.90;;;;;;5484951;26;20331;-71
2024/04/14 11:42:25;;;;;;;7.07;2.10;;;17.50;17.50;;;;;;5468446;26;20342;-71
2024/04/14 11:44:50;;;;;;;8.05;2.00;;;17.70;16.30;;;;;;5452125;26;20326;-71
2024/04/14 11:47:17;;;;;;;8.43;2.00;;;17.80;15.60;;;;;;5484240;26;20375;-76
2024/04/14 11:49:43;;;;;;;8.88;1.77;;;17.90;15.50;;;;;;5483450;26;20338;-74
2024/04/14 11:52:09;;;;;;;10.48;2.15;;;18.30;15.40;;;;;;5483388;26;20820;-74
2024/04/14 11:54:34;;;;;;;9.07;2.00;;;18.60;13.90;;;;;;5482919;26;20848;-71
2024/04/14 11:57:00;;;;;;;9.57;1.90;;;18.80;13.80;;;;;;5483607;26;20330;-71
2024/04/14 11:59:25;;;;;;;7.77;2.00;;;18.80;13.00;;;;;;5483808;26;20323;-72
2024/04/14 12:01:51;;;;;;;5.65;1.67;;;18.20;14.20;;;;;;5484115;26;20326;-71
2024/04/14 12:04:16;;;;;;;7.17;1.90;;;18.20;13.70;;;;;;5483199;26;20361;-74
2024/04/14 12:06:42;;;;;;;9.20;2.27;;;18.20;13.60;;;;;;5484017;26;20361;-73
2024/04/14 12:09:08;;;;;;;5.25;1.90;;;17.90;14.80;;;;;;5483077;26;20369;-73
2024/04/14 12:11:34;;;;;;;5.83;1.77;;;17.90;14.00;;;;;;5484070;26;20754;-72
2024/04/14 12:13:59;;;;;;;11.63;1.77;;;17.80;14.40;;;;;;5482744;26;20800;-75
2024/04/14 12:16:25;;;;;;;7.47;1.80;;;17.90;15.00;;;;;;5484430;26;20314;-74
2024/04/14 12:18:50;;;;;;;8.20;2.07;;;18.20;14.30;;;;;;5483046;26;20326;-74
2024/04/14 12:21:16;;;;;;;6.50;1.60;;;18.50;13.00;;;;;;5484047;26;20395;-73
2024/04/14 12:23:41;;;;;;;9.60;2.10;;;18.90;13.20;;;;;;5480302;26;20326;-73
2024/04/14 12:26:07;;;;;;;5.47;2.20;;;18.90;13.10;;;;;;5484390;26;20887;-73
2024/04/14 12:28:32;;;;;;;9.68;2.20;;;18.90;12.70;;;;;;5484469;26;20426;-72
2024/04/14 12:30:58;;;;;;;8.30;3.20;;;19.00;12.60;;;;;;5499587;26;20359;-71
2024/04/14 12:33:23;;;;;;;11.52;4.65;;;18.90;13.20;;;;;;5496712;26;20358;-72
2024/04/14 12:35:49;;;;;;;7.30;1.90;;;19.00;12.70;;;;;;5497704;26;20355;-71
2024/04/14 12:38:14;;;;;;;6.63;2.10;;;19.40;12.30;;;;;;5500641;26;20342;-72